createdAt,value
2022-08-05T00:03:32.578Z,18.74
2022-08-05T00:08:37.416Z,18.70
2022-08-05T00:13:45.816Z,18.90
2022-08-05T00:18:57.319Z,18.55
2022-08-05T00:24:10.677Z,18.32
2022-08-05T00:29:16.639Z,18.10
2022-08-05T00:34:56.408Z,18.39
2022-08-05T00:39:58.468Z,18.27
2022-08-05T00:45:08.880Z,18.24
2022-08-05T00:50:15.830Z,18.55
2022-08-05T00:55:19.915Z,18.32
2022-08-05T01:00:25.998Z,18.71
2022-08-05T01:05:30.357Z,18.76
2022-08-05T01:10:39.651Z,18.32
2022-08-05T01:15:55.226Z,18.11
2022-08-05T01:21:12.562Z,18.38
2022-08-05T01:26:41.672Z,18.32
2022-08-05T01:31:51.577Z,18.25
2022-08-05T01:37:02.978Z,18.37
2022-08-05T01:42:09.636Z,18.31
2022-08-05T01:47:18.917Z,18.12
2022-08-05T01:52:24.640Z,18.28
2022-08-05T01:58:29.782Z,18.34
2022-08-05T02:03:03.527Z,18.26
2022-08-05T02:08:08.176Z,18.15
2022-08-05T02:13:16.869Z,17.80
2022-08-05T02:18:34.231Z,17.86
2022-08-05T02:23:42.566Z,18.15
2022-08-05T02:28:49.508Z,18.14
2022-08-05T02:34:06.367Z,18.16
2022-08-05T02:39:17.140Z,17.99
2022-08-05T02:44:27.066Z,17.72
2022-08-05T02:49:37.916Z,17.80
2022-08-05T02:54:52.056Z,18.03
2022-08-05T02:59:57.699Z,18.10
2022-08-05T03:05:06.328Z,18.17
2022-08-05T03:10:13.338Z,17.76
2022-08-05T03:15:17.613Z,17.72
2022-08-05T03:20:23.631Z,17.92
2022-08-05T03:26:03.754Z,17.86
2022-08-05T03:30:55.241Z,17.74
2022-08-05T03:36:01.412Z,17.59
2022-08-05T03:41:11.080Z,17.67
2022-08-05T03:46:15.112Z,17.71
2022-08-05T03:52:49.029Z,17.73
2022-08-05T03:56:56.153Z,17.28
2022-08-05T04:02:04.560Z,17.26
2022-08-05T04:07:12.779Z,17.28
2022-08-05T04:12:23.591Z,17.17
2022-08-05T04:17:55.689Z,17.16
2022-08-05T04:22:55.032Z,17.41
2022-08-05T04:28:11.076Z,17.55
2022-08-05T04:33:16.406Z,17.72
2022-08-05T04:38:43.879Z,17.90
2022-08-05T04:43:55.059Z,17.75
2022-08-05T04:48:59.889Z,18.12
2022-08-05T04:54:05.658Z,18.52
2022-08-05T04:59:21.626Z,18.50
2022-08-05T05:04:29.869Z,18.81
2022-08-05T05:09:37.417Z,18.92
2022-08-05T05:14:49.396Z,18.98
2022-08-05T05:19:56.521Z,19.25
2022-08-05T05:25:02.434Z,19.54
2022-08-05T05:30:29.736Z,19.43
2022-08-05T05:35:37.909Z,19.53
2022-08-05T05:40:49.693Z,19.65
2022-08-05T05:45:55.977Z,19.84
2022-08-05T05:51:14.947Z,20.08
2022-08-05T05:56:26.195Z,20.26
2022-08-05T06:01:39.365Z,20.52
2022-08-05T06:06:48.743Z,20.65
2022-08-05T06:12:01.880Z,20.82
2022-08-05T06:17:22.087Z,20.99
2022-08-05T06:22:33.540Z,21.10
2022-08-05T06:28:11.727Z,21.23
2022-08-05T06:33:04.506Z,21.55
2022-08-05T06:38:14.213Z,21.78
2022-08-05T06:43:58.245Z,21.93
2022-08-05T06:48:56.349Z,22.12
2022-08-05T06:54:05.263Z,22.30
2022-08-05T06:59:14.589Z,22.45
2022-08-05T07:04:19.637Z,22.64
2022-08-05T07:09:24.874Z,22.84
2022-08-05T07:14:48.047Z,23.20
2022-08-05T07:25:53.943Z,23.62
2022-08-05T07:30:44.493Z,23.98
2022-08-05T07:36:02.052Z,24.24
2022-08-05T07:42:14.748Z,24.42
2022-08-05T07:46:48.486Z,24.70
2022-08-05T07:51:55.328Z,25.07
2022-08-05T07:57:18.022Z,25.26
2022-08-05T08:03:13.306Z,25.66
2022-08-05T08:08:00.188Z,26.15
2022-08-05T08:13:05.561Z,26.50
2022-08-05T08:18:14.336Z,27.07
2022-08-05T08:24:01.741Z,27.23
2022-08-05T08:28:59.495Z,27.36
2022-08-05T08:34:09.142Z,27.33
2022-08-05T08:39:14.878Z,27.57
2022-08-05T08:45:16.877Z,27.86
2022-08-05T08:50:12.823Z,28.13
2022-08-05T08:55:19.523Z,28.13
2022-08-05T09:00:36.551Z,27.99
2022-08-05T09:06:09.447Z,28.07
2022-08-05T09:11:08.638Z,28.47
2022-08-05T09:16:16.859Z,29.11
2022-08-05T09:22:22.029Z,30.03
2022-08-05T09:26:52.082Z,30.30
2022-08-05T09:32:40.812Z,30.51
2022-08-05T09:38:12.343Z,29.70
2022-08-05T09:42:56.897Z,29.60
2022-08-05T09:48:01.226Z,30.05
2022-08-05T09:53:06.915Z,29.70
2022-08-05T09:58:14.276Z,29.02
2022-08-05T10:03:18.736Z,29.58
2022-08-05T10:08:36.206Z,30.28
2022-08-05T10:13:47.262Z,30.88
2022-08-05T10:18:52.793Z,31.03
2022-08-05T10:23:59.457Z,30.83
2022-08-05T10:29:04.536Z,31.13
2022-08-05T10:34:09.849Z,31.56
2022-08-05T10:39:25.125Z,32.01
2022-08-05T10:44:46.690Z,32.37
2022-08-05T10:50:31.979Z,32.40
2022-08-05T10:55:38.575Z,31.83
2022-08-05T11:01:03.009Z,31.19
2022-08-05T11:06:15.532Z,30.77
2022-08-05T11:11:44.676Z,30.52
2022-08-05T11:17:57.233Z,30.33
2022-08-05T11:24:05.409Z,30.04
2022-08-05T11:29:11.957Z,30.24
2022-08-05T11:34:37.361Z,30.66
2022-08-05T11:39:55.435Z,30.38
2022-08-05T11:45:14.264Z,29.97
2022-08-05T11:50:27.601Z,30.30
2022-08-05T11:55:36.427Z,31.05
2022-08-05T12:00:44.312Z,31.54
2022-08-05T12:05:51.066Z,31.86
2022-08-05T12:10:59.669Z,32.26
2022-08-05T12:16:14.732Z,32.82
2022-08-05T12:21:21.498Z,33.02
2022-08-05T12:26:32.729Z,33.00
2022-08-05T12:31:41.522Z,33.21
2022-08-05T12:36:56.152Z,32.83
2022-08-05T12:42:03.613Z,33.19
2022-08-05T12:47:12.589Z,33.36
2022-08-05T12:52:25.573Z,33.28
2022-08-05T12:58:50.508Z,33.05
2022-08-05T13:03:04.392Z,33.19
2022-08-05T13:08:11.331Z,33.36
2022-08-05T13:14:05.546Z,33.22
2022-08-05T13:18:57.667Z,32.57
2022-08-05T13:24:02.965Z,31.71
2022-08-05T13:29:08.602Z,31.23
2022-08-05T13:34:25.649Z,31.17
2022-08-05T13:40:13.569Z,31.60
2022-08-05T13:44:56.123Z,31.84
2022-08-05T13:50:12.382Z,31.91
2022-08-05T13:55:40.791Z,32.12
2022-08-05T14:00:45.059Z,32.20
2022-08-05T14:06:25.827Z,31.98
2022-08-05T14:11:20.529Z,32.32
2022-08-05T14:16:26.445Z,32.25
2022-08-05T14:22:10.155Z,32.39
2022-08-05T14:27:17.155Z,32.12
2022-08-05T14:32:27.694Z,32.05
2022-08-05T14:37:45.204Z,32.19
2022-08-05T14:42:53.236Z,32.15
2022-08-05T14:48:04.033Z,31.87
2022-08-05T14:53:12.421Z,31.59
2022-08-05T14:58:17.570Z,31.42
2022-08-05T15:03:23.205Z,31.51
2022-08-05T15:08:57.542Z,31.42
2022-08-05T15:13:52.803Z,31.42
2022-08-05T15:18:56.954Z,31.24
2022-08-05T15:24:09.699Z,31.16
2022-08-05T15:29:15.387Z,30.87
2022-08-05T15:34:33.172Z,30.74
2022-08-05T15:40:59.682Z,30.64
2022-08-05T15:45:03.439Z,30.39
2022-08-05T15:50:15.328Z,30.35
2022-08-05T15:55:24.805Z,30.28
2022-08-05T16:00:51.027Z,30.07
2022-08-05T16:05:55.897Z,29.92
2022-08-05T16:11:01.561Z,29.75
2022-08-05T16:16:06.335Z,29.64
2022-08-05T16:21:11.745Z,29.59
2022-08-05T16:26:26.285Z,29.39
2022-08-05T16:31:56.415Z,29.33
2022-08-05T16:36:56.395Z,29.13
2022-08-05T16:42:13.689Z,29.20
2022-08-05T16:47:28.946Z,28.87
2022-08-05T16:52:46.021Z,28.72
2022-08-05T16:58:01.409Z,28.55
2022-08-05T17:03:15.295Z,28.49
2022-08-05T17:08:35.791Z,28.36
2022-08-05T17:13:49.926Z,28.32
2022-08-05T17:18:54.771Z,28.22
2022-08-05T17:24:04.959Z,27.96
2022-08-05T17:29:13.697Z,27.61
2022-08-05T17:34:17.764Z,27.39
2022-08-05T17:39:24.201Z,27.26
2022-08-05T17:44:35.687Z,27.23
2022-08-05T17:49:59.520Z,26.99
2022-08-05T17:55:03.969Z,26.96
2022-08-05T18:00:14.233Z,26.73
2022-08-05T18:05:18.879Z,26.55
2022-08-05T18:10:24.240Z,26.50
2022-08-05T18:15:31.226Z,26.41
2022-08-05T18:20:38.992Z,26.25
2022-08-05T18:25:45.210Z,26.00
2022-08-05T18:30:52.515Z,25.89
2022-08-05T18:36:04.314Z,25.79
2022-08-05T18:41:55.982Z,25.67
2022-08-05T18:46:37.217Z,25.53
2022-08-05T18:52:11.204Z,25.07
2022-08-05T18:57:17.485Z,25.08
2022-08-05T19:02:29.626Z,25.02
2022-08-05T19:07:45.861Z,24.99
2022-08-05T19:12:51.600Z,24.81
2022-08-05T19:18:10.156Z,24.72
2022-08-05T19:24:03.588Z,24.61
2022-08-05T19:28:41.491Z,24.38
2022-08-05T19:33:56.336Z,24.13
2022-08-05T19:39:02.410Z,24.09
2022-08-05T19:44:12.815Z,23.97
2022-08-05T19:49:20.332Z,23.83
2022-08-05T19:54:29.496Z,23.73
2022-08-05T20:00:00.766Z,23.57
2022-08-05T20:05:02.495Z,23.36
2022-08-05T20:10:13.596Z,23.40
2022-08-05T20:15:47.885Z,22.83
2022-08-05T20:20:48.194Z,22.28
2022-08-05T20:25:52.591Z,22.11
2022-08-05T20:30:57.953Z,21.79
2022-08-05T20:36:03.686Z,21.88
2022-08-05T20:41:09.641Z,21.89
2022-08-05T20:46:18.402Z,21.95
2022-08-05T20:51:30.794Z,21.85
2022-08-05T20:56:42.216Z,21.63
2022-08-05T21:01:47.234Z,21.62
2022-08-05T21:06:55.920Z,21.92
2022-08-05T21:12:10.395Z,21.89
2022-08-05T21:17:16.220Z,21.88
2022-08-05T21:22:23.790Z,21.92
2022-08-05T21:27:28.151Z,21.85
2022-08-05T21:32:43.059Z,21.91
2022-08-05T21:37:52.849Z,21.71
2022-08-05T21:42:59.166Z,21.49
2022-08-05T21:48:06.234Z,21.33
2022-08-05T21:53:16.734Z,21.15
2022-08-05T21:58:30.676Z,21.33
2022-08-05T22:03:52.379Z,20.99
2022-08-05T22:08:58.805Z,20.85
2022-08-05T22:14:35.803Z,21.16
2022-08-05T22:20:03.033Z,21.21
2022-08-05T22:25:21.085Z,20.91
2022-08-05T22:30:35.001Z,20.64
2022-08-05T22:35:49.276Z,20.82
2022-08-05T22:40:55.373Z,20.82
2022-08-05T22:45:59.762Z,20.40
2022-08-05T22:51:07.024Z,20.48
2022-08-05T22:56:12.852Z,20.62
2022-08-05T23:01:17.361Z,20.48
2022-08-05T23:06:26.276Z,20.51
2022-08-05T23:11:32.499Z,20.49
2022-08-05T23:16:53.999Z,20.67
2022-08-05T23:21:58.220Z,20.44
2022-08-05T23:27:04.939Z,20.19
2022-08-05T23:32:09.571Z,19.84
2022-08-05T23:37:14.874Z,19.52
2022-08-05T23:42:23.516Z,19.50
2022-08-05T23:47:33.524Z,19.95
2022-08-05T23:52:49.745Z,19.96
2022-08-05T23:57:57.842Z,20.24
